createdAt,value
2019-02-04T00:01:26.919Z,0.80
2019-02-04T00:03:58.923Z,0.70
2019-02-04T00:06:28.280Z,0.70
2019-02-04T00:08:57.829Z,0.60
2019-02-04T00:11:27.269Z,0.60
2019-02-04T00:13:56.892Z,0.60
2019-02-04T00:16:26.484Z,0.60
2019-02-04T00:18:55.890Z,0.60
2019-02-04T00:21:25.241Z,0.60
2019-02-04T00:23:54.580Z,0.60
2019-02-04T00:26:23.910Z,0.60
2019-02-04T00:28:53.264Z,0.50
2019-02-04T00:31:23.801Z,0.50
2019-02-04T00:33:53.311Z,0.50
2019-02-04T00:36:22.668Z,0.50
2019-02-04T00:38:52.041Z,0.50
2019-02-04T00:41:21.377Z,0.40
2019-02-04T00:43:50.746Z,0.40
2019-02-04T00:46:20.232Z,0.40
2019-02-04T00:48:49.564Z,0.30
2019-02-04T00:51:18.952Z,0.30
2019-02-04T00:53:48.407Z,0.30
2019-02-04T00:56:17.798Z,0.20
2019-02-04T00:58:47.168Z,0.20
2019-02-04T01:01:16.543Z,0.20
2019-02-04T01:03:45.959Z,0.20
2019-02-04T01:06:15.318Z,0.10
2019-02-04T01:08:44.670Z,0.10
2019-02-04T01:11:14.080Z,0.20
2019-02-04T01:13:43.690Z,0.20
2019-02-04T01:16:13.060Z,0.20
2019-02-04T01:18:42.508Z,0.20
2019-02-04T01:21:11.991Z,0.20
2019-02-04T01:23:41.342Z,0.10
2019-02-04T01:26:10.808Z,0.10
2019-02-04T01:28:40.376Z,0.10
2019-02-04T01:31:09.831Z,0.00
2019-02-04T01:33:39.265Z,0.00
2019-02-04T01:36:08.744Z,0.00
2019-02-04T01:38:38.144Z,0.00
2019-02-04T01:41:07.659Z,0.00
2019-02-04T01:43:37.062Z,0.00
2019-02-04T01:46:06.459Z,0.00
2019-02-04T01:48:35.792Z,0.00
2019-02-04T01:51:05.174Z,0.00
2019-02-04T01:53:34.511Z,0.00
2019-02-04T01:56:04.356Z,0.00
2019-02-04T01:58:33.806Z,0.00
2019-02-04T02:01:03.223Z,0.00
2019-02-04T02:03:32.572Z,0.00
2019-02-04T02:06:01.944Z,0.00
2019-02-04T02:08:31.367Z,0.00
2019-02-04T02:11:00.890Z,0.00
2019-02-04T02:13:30.218Z,0.00
2019-02-04T02:15:59.547Z,0.00
2019-02-04T02:18:28.893Z,0.00
2019-02-04T02:20:58.213Z,0.00
2019-02-04T02:23:27.623Z,0.00
2019-02-04T02:25:56.916Z,0.00
2019-02-04T02:28:26.273Z,0.00
2019-02-04T02:30:55.597Z,0.00
2019-02-04T02:33:24.924Z,0.00
2019-02-04T02:35:54.347Z,0.00
2019-02-04T02:38:24.188Z,0.10
2019-02-04T02:40:53.514Z,0.10
2019-02-04T02:43:22.868Z,0.10
2019-02-04T02:45:52.193Z,0.10
2019-02-04T02:48:21.529Z,0.10
2019-02-04T02:50:51.062Z,0.10
2019-02-04T02:53:20.745Z,0.10
2019-02-04T02:55:50.116Z,0.10
2019-02-04T02:58:19.433Z,0.10
2019-02-04T03:00:48.794Z,0.20
2019-02-04T03:03:18.104Z,0.10
2019-02-04T03:05:47.488Z,0.20
2019-02-04T03:08:16.999Z,0.20
2019-02-04T03:10:46.478Z,0.20
2019-02-04T03:13:15.807Z,0.20
2019-02-04T03:15:45.148Z,0.20
2019-02-04T03:18:14.546Z,0.20
2019-02-04T03:20:43.994Z,0.20
2019-02-04T03:23:13.406Z,0.10
2019-02-04T03:25:42.858Z,0.20
2019-02-04T03:28:12.205Z,0.10
2019-02-04T03:30:41.669Z,0.10
2019-02-04T03:33:11.113Z,0.10
2019-02-04T03:35:40.787Z,0.10
2019-02-04T03:38:10.175Z,0.10
2019-02-04T03:40:39.668Z,0.10
2019-02-04T03:43:09.027Z,0.10
2019-02-04T03:45:38.479Z,0.00
2019-02-04T03:48:09.680Z,0.00
2019-02-04T03:50:39.141Z,-0.10
2019-02-04T03:53:08.670Z,-0.10
2019-02-04T03:55:38.041Z,-0.10
2019-02-04T03:58:07.497Z,-0.10
2019-02-04T04:00:37.517Z,-0.10
2019-02-04T04:03:07.325Z,-0.10
2019-02-04T04:05:36.793Z,-0.10
2019-02-04T04:08:06.162Z,-0.10
2019-02-04T04:10:35.569Z,-0.20
2019-02-04T04:13:04.977Z,-0.10
2019-02-04T04:15:34.363Z,-0.10
2019-02-04T04:18:15.055Z,-0.10
2019-02-04T04:20:35.089Z,-0.20
2019-02-04T04:23:04.484Z,-0.20
2019-02-04T04:25:33.827Z,-0.20
2019-02-04T04:28:03.217Z,-0.10
2019-02-04T04:30:32.579Z,-0.10
2019-02-04T04:33:02.040Z,-0.20
2019-02-04T04:35:31.375Z,-0.20
2019-02-04T04:38:00.851Z,-0.20
2019-02-04T04:40:30.251Z,-0.20
2019-02-04T04:42:59.603Z,-0.20
2019-02-04T04:45:28.988Z,-0.20
2019-02-04T04:47:58.401Z,-0.20
2019-02-04T04:50:27.843Z,-0.20
2019-02-04T04:52:57.203Z,-0.10
2019-02-04T04:55:27.060Z,-0.10
2019-02-04T04:57:56.582Z,-0.10
2019-02-04T05:00:29.041Z,-0.10
2019-02-04T05:02:58.565Z,-0.10
2019-02-04T05:05:28.242Z,-0.20
2019-02-04T05:07:57.946Z,-0.20
2019-02-04T05:10:27.438Z,-0.20
2019-02-04T05:12:56.921Z,-0.10
2019-02-04T05:15:27.362Z,-0.20
2019-02-04T05:17:56.935Z,-0.20
2019-02-04T05:20:26.394Z,-0.10
2019-02-04T05:22:55.744Z,-0.10
2019-02-04T05:25:25.139Z,-0.10
2019-02-04T05:27:54.947Z,-0.20
2019-02-04T05:30:25.278Z,-0.20
2019-02-04T05:32:54.613Z,-0.20
2019-02-04T05:35:24.013Z,-0.10
2019-02-04T05:37:53.463Z,-0.10
2019-02-04T05:40:22.919Z,-0.10
2019-02-04T05:42:52.353Z,-0.10
2019-02-04T05:45:22.097Z,-0.10
2019-02-04T05:47:51.479Z,-0.10
2019-02-04T05:50:21.118Z,0.00
2019-02-04T05:52:50.707Z,-0.10
2019-02-04T05:55:21.532Z,-0.10
2019-02-04T05:57:50.887Z,-0.10
2019-02-04T06:00:31.879Z,-0.10
2019-02-04T06:03:01.405Z,-0.10
2019-02-04T06:05:30.938Z,-0.10
2019-02-04T06:08:00.743Z,-0.10
2019-02-04T06:10:30.138Z,-0.10
2019-02-04T06:12:59.721Z,-0.10
2019-02-04T06:15:29.105Z,-0.10
2019-02-04T06:17:58.461Z,-0.10
2019-02-04T06:20:27.828Z,-0.10
2019-02-04T06:22:57.326Z,-0.10
2019-02-04T06:25:26.777Z,-0.10
2019-02-04T06:27:56.336Z,-0.10
2019-02-04T06:30:25.726Z,-0.10
2019-02-04T06:32:55.457Z,-0.10
2019-02-04T06:35:24.910Z,-0.10
2019-02-04T06:37:54.630Z,-0.10
2019-02-04T06:40:24.075Z,-0.10
2019-02-04T06:42:53.572Z,-0.10
2019-02-04T06:45:22.990Z,0.00
2019-02-04T06:47:52.367Z,0.00
2019-02-04T06:50:22.144Z,0.00
2019-02-04T06:52:51.574Z,0.00
2019-02-04T06:55:23.621Z,0.00
2019-02-04T06:57:53.457Z,0.10
2019-02-04T07:00:22.939Z,0.10
2019-02-04T07:02:52.955Z,0.20
2019-02-04T07:05:26.813Z,0.20
2019-02-04T07:07:56.179Z,0.20
2019-02-04T07:10:26.180Z,0.20
2019-02-04T07:12:55.699Z,0.30
2019-02-04T07:15:25.126Z,0.30
2019-02-04T07:17:54.890Z,0.30
2019-02-04T07:20:25.207Z,0.40
2019-02-04T07:22:54.852Z,0.40
2019-02-04T07:25:25.067Z,0.50
2019-02-04T07:27:54.516Z,0.50
2019-02-04T07:30:25.593Z,0.60
2019-02-04T07:32:55.375Z,0.70
2019-02-04T07:35:24.942Z,0.90
2019-02-04T07:37:54.600Z,1.10
2019-02-04T07:40:29.212Z,1.40
2019-02-04T07:42:59.038Z,1.50
2019-02-04T07:45:28.737Z,1.60
2019-02-04T07:47:58.298Z,1.70
2019-02-04T07:50:36.276Z,1.80
2019-02-04T07:53:06.195Z,1.80
2019-02-04T07:55:35.776Z,1.90
2019-02-04T07:58:05.161Z,1.80
2019-02-04T08:00:34.941Z,1.80
2019-02-04T08:03:04.718Z,1.90
2019-02-04T08:05:34.435Z,1.90
2019-02-04T08:08:03.864Z,2.00
2019-02-04T08:10:33.482Z,2.00
2019-02-04T08:13:03.639Z,2.00
2019-02-04T08:15:35.656Z,2.10
2019-02-04T08:18:06.190Z,2.20
2019-02-04T08:20:35.636Z,2.30
2019-02-04T08:23:05.126Z,2.30
2019-02-04T08:25:34.661Z,2.40
2019-02-04T08:28:04.252Z,2.50
2019-02-04T08:30:37.918Z,2.50
2019-02-04T08:33:06.549Z,2.60
2019-02-04T08:35:35.906Z,2.70
2019-02-04T08:38:05.530Z,2.90
2019-02-04T08:40:35.360Z,3.10
2019-02-04T08:43:05.007Z,3.30
2019-02-04T08:45:34.569Z,3.50
2019-02-04T08:48:05.151Z,3.70
2019-02-04T08:50:34.578Z,3.90
2019-02-04T08:53:04.084Z,4.00
2019-02-04T08:55:33.811Z,4.10
2019-02-04T08:58:03.270Z,4.20
2019-02-04T09:00:32.705Z,4.20
2019-02-04T09:03:02.134Z,4.20
2019-02-04T09:05:31.579Z,4.20
2019-02-04T09:08:00.974Z,4.30
2019-02-04T09:10:32.008Z,4.40
2019-02-04T09:13:01.957Z,4.50
2019-02-04T09:15:31.422Z,4.60
2019-02-04T09:18:01.684Z,4.70
2019-02-04T09:20:31.144Z,4.70
2019-02-04T09:23:00.590Z,4.70
2019-02-04T09:25:30.032Z,4.80
2019-02-04T09:27:59.648Z,4.70
2019-02-04T09:30:29.512Z,4.50
2019-02-04T09:32:59.404Z,4.40
2019-02-04T09:35:29.132Z,4.20
2019-02-04T09:37:58.549Z,4.00
2019-02-04T09:40:33.725Z,4.00
2019-02-04T09:43:03.169Z,4.10
2019-02-04T09:45:32.648Z,4.00
2019-02-04T09:48:02.147Z,4.10
2019-02-04T09:50:32.775Z,4.20
2019-02-04T09:53:02.143Z,4.30
2019-02-04T09:55:33.707Z,4.40
2019-02-04T09:58:03.107Z,4.50
2019-02-04T10:00:34.206Z,4.40
2019-02-04T10:03:03.841Z,4.40
2019-02-04T10:05:33.263Z,4.40
2019-02-04T10:08:02.996Z,4.40
2019-02-04T10:10:32.355Z,4.40
2019-02-04T10:13:01.728Z,4.50
2019-02-04T10:15:33.506Z,4.60
2019-02-04T10:18:02.925Z,4.90
2019-02-04T10:20:34.494Z,5.10
2019-02-04T10:23:03.629Z,5.40
2019-02-04T10:25:35.039Z,5.40
2019-02-04T10:28:04.529Z,5.70
2019-02-04T10:30:33.934Z,6.00
2019-02-04T10:33:03.302Z,6.20
2019-02-04T10:35:33.012Z,6.40
2019-02-04T10:38:02.432Z,6.40
2019-02-04T10:40:32.335Z,6.70
2019-02-04T10:43:01.898Z,6.80
2019-02-04T10:45:31.442Z,7.00
2019-02-04T10:48:00.961Z,7.30
2019-02-04T10:50:32.384Z,7.30
2019-02-04T10:53:01.913Z,7.60
2019-02-04T10:55:31.346Z,7.50
2019-02-04T10:58:00.846Z,7.20
2019-02-04T11:00:32.655Z,7.20
2019-02-04T11:03:02.080Z,7.20
2019-02-04T11:05:33.620Z,7.20
2019-02-04T11:08:03.112Z,7.10
2019-02-04T11:10:34.386Z,7.00
2019-02-04T11:13:06.517Z,7.10
2019-02-04T11:15:35.940Z,7.00
2019-02-04T11:18:05.919Z,7.00
2019-02-04T11:20:35.540Z,7.00
2019-02-04T11:23:06.499Z,6.80
2019-02-04T11:25:36.019Z,7.00
2019-02-04T11:28:06.254Z,6.90
2019-02-04T11:30:38.308Z,6.60
2019-02-04T11:33:08.114Z,6.50
2019-02-04T11:35:37.582Z,6.50
2019-02-04T11:38:07.562Z,6.50
2019-02-04T11:40:38.524Z,6.60
2019-02-04T11:43:08.172Z,6.60
2019-02-04T11:45:37.856Z,6.60
2019-02-04T11:48:09.173Z,6.60
2019-02-04T11:50:38.793Z,6.50
2019-02-04T11:53:08.162Z,6.50
2019-02-04T11:55:37.518Z,6.60
2019-02-04T11:58:08.071Z,6.70
2019-02-04T12:00:37.853Z,6.80
2019-02-04T12:03:07.824Z,7.00
2019-02-04T12:05:37.255Z,7.20
2019-02-04T12:08:06.763Z,7.10
2019-02-04T12:10:39.394Z,7.20
2019-02-04T12:13:08.744Z,7.30
2019-02-04T12:15:38.187Z,7.40
2019-02-04T12:18:07.647Z,7.50
2019-02-04T12:20:39.845Z,7.70
2019-02-04T12:23:08.078Z,7.70
2019-02-04T12:25:37.830Z,7.70
2019-02-04T12:28:07.225Z,7.70
2019-02-04T12:30:38.606Z,7.70
2019-02-04T12:33:09.813Z,7.70
2019-02-04T12:35:39.307Z,7.80
2019-02-04T12:38:08.652Z,7.80
2019-02-04T12:40:38.451Z,7.80
2019-02-04T12:43:07.847Z,7.70
2019-02-04T12:45:37.417Z,7.50
2019-02-04T12:48:07.677Z,7.60
2019-02-04T12:50:37.030Z,7.50
2019-02-04T12:53:06.814Z,7.50
2019-02-04T12:55:36.156Z,7.60
2019-02-04T12:58:06.131Z,7.60
2019-02-04T13:00:35.562Z,7.80
2019-02-04T13:03:05.704Z,7.70
2019-02-04T13:05:37.584Z,7.60
2019-02-04T13:08:08.500Z,7.70
2019-02-04T13:10:37.817Z,7.60
2019-02-04T13:13:10.297Z,7.50
2019-02-04T13:15:39.772Z,7.50
2019-02-04T13:18:09.420Z,7.50
2019-02-04T13:20:39.255Z,7.60
2019-02-04T13:23:08.833Z,7.60
2019-02-04T13:25:38.241Z,7.60
2019-02-04T13:28:12.528Z,7.70
2019-02-04T13:30:41.996Z,7.70
2019-02-04T13:33:12.146Z,7.60
2019-02-04T13:35:41.618Z,7.50
2019-02-04T13:38:11.167Z,7.50
2019-02-04T13:40:44.371Z,7.50
2019-02-04T13:43:13.579Z,7.60
2019-02-04T13:45:43.118Z,7.60
2019-02-04T13:48:12.996Z,7.40
2019-02-04T13:50:42.366Z,7.40
2019-02-04T13:53:11.700Z,7.30
2019-02-04T13:55:41.260Z,7.40
2019-02-04T13:58:10.811Z,7.30
2019-02-04T14:00:40.235Z,7.30
2019-02-04T14:03:09.941Z,7.30
2019-02-04T14:05:39.280Z,7.30
2019-02-04T14:08:08.925Z,7.20
2019-02-04T14:10:40.506Z,7.20
2019-02-04T14:13:09.901Z,7.20
2019-02-04T14:15:40.085Z,7.20
2019-02-04T14:18:10.004Z,7.20
2019-02-04T14:20:39.359Z,7.20
2019-02-04T14:23:10.656Z,7.20
2019-02-04T14:25:40.028Z,7.20
2019-02-04T14:28:09.578Z,7.20
2019-02-04T14:30:39.598Z,7.20
2019-02-04T14:33:09.223Z,7.10
2019-02-04T14:35:38.662Z,7.10
2019-02-04T14:38:09.455Z,7.00
2019-02-04T14:40:39.176Z,7.00
2019-02-04T14:43:15.687Z,6.90
2019-02-04T14:46:17.926Z,6.90
2019-02-04T14:49:23.829Z,6.80
2019-02-04T14:52:31.371Z,6.70
2019-02-04T14:55:28.355Z,6.60
2019-02-04T14:58:25.068Z,6.50
2019-02-04T15:01:31.993Z,6.50
2019-02-04T15:04:31.361Z,6.40
2019-02-04T15:07:40.064Z,6.40
2019-02-04T15:11:05.824Z,6.40
2019-02-04T15:14:12.020Z,6.30
2019-02-04T15:17:25.695Z,6.30
2019-02-04T15:20:45.159Z,6.30
2019-02-04T15:24:08.457Z,6.30
2019-02-04T15:27:05.345Z,6.30
2019-02-04T15:29:48.237Z,6.20
2019-02-04T15:32:57.281Z,6.20
2019-02-04T15:36:10.542Z,6.10
2019-02-04T15:39:09.996Z,6.10
2019-02-04T15:42:03.991Z,6.10
2019-02-04T15:47:52.083Z,6.00
2019-02-04T15:50:43.777Z,6.00
2019-02-04T15:53:13.282Z,5.90
2019-02-04T15:55:42.749Z,5.90
2019-02-04T15:58:12.301Z,5.90
2019-02-04T16:00:41.745Z,5.90
2019-02-04T16:03:11.326Z,5.80
2019-02-04T16:05:41.375Z,5.70
2019-02-04T16:08:11.506Z,5.70
2019-02-04T16:10:41.005Z,5.70
2019-02-04T16:13:10.412Z,5.70
2019-02-04T16:15:42.265Z,5.70
2019-02-04T16:18:11.721Z,5.70
2019-02-04T16:20:41.243Z,5.60
2019-02-04T16:23:10.934Z,5.60
2019-02-04T16:25:40.481Z,5.60
2019-02-04T16:28:09.927Z,5.60
2019-02-04T16:30:39.779Z,5.50
2019-02-04T16:33:09.372Z,5.50
2019-02-04T16:35:39.079Z,5.40
2019-02-04T16:38:08.783Z,5.50
2019-02-04T16:40:38.411Z,5.40
2019-02-04T16:43:07.908Z,5.50
2019-02-04T16:45:37.440Z,5.40
2019-02-04T16:48:07.194Z,5.40
2019-02-04T16:50:36.633Z,5.40
2019-02-04T16:53:10.668Z,5.40
2019-02-04T16:55:37.295Z,5.40
2019-02-04T16:58:06.816Z,5.40
2019-02-04T17:00:36.198Z,5.50
2019-02-04T17:03:05.597Z,5.50
2019-02-04T17:05:35.222Z,5.50
2019-02-04T17:08:05.511Z,5.50
2019-02-04T17:10:34.927Z,5.50
2019-02-04T17:13:04.565Z,5.50
2019-02-04T17:15:34.021Z,5.50
2019-02-04T17:18:03.439Z,5.50
2019-02-04T17:20:33.998Z,5.50
2019-02-04T17:23:03.734Z,5.50
2019-02-04T17:25:33.256Z,5.50
2019-02-04T17:28:03.213Z,5.40
2019-02-04T17:30:32.861Z,5.40
2019-02-04T17:33:02.371Z,5.40
2019-02-04T17:35:31.905Z,5.40
2019-02-04T17:38:04.127Z,5.30
2019-02-04T17:40:33.595Z,5.40
2019-02-04T17:43:03.318Z,5.40
2019-02-04T17:45:32.771Z,5.50
2019-02-04T17:48:02.161Z,5.40
2019-02-04T17:50:31.696Z,5.40
2019-02-04T17:53:01.227Z,5.50
2019-02-04T17:55:30.778Z,5.40
2019-02-04T17:58:00.388Z,5.40
2019-02-04T18:00:36.574Z,5.30
2019-02-04T18:03:07.164Z,5.30
2019-02-04T18:05:36.656Z,5.30
2019-02-04T18:08:07.040Z,5.30
2019-02-04T18:10:37.031Z,5.30
2019-02-04T18:13:06.618Z,5.30
2019-02-04T18:15:36.085Z,5.30
2019-02-04T18:18:06.272Z,5.30
2019-02-04T18:20:35.644Z,5.30
2019-02-04T18:23:07.016Z,5.30
2019-02-04T18:25:36.533Z,5.20
2019-02-04T18:28:06.199Z,5.20
2019-02-04T18:30:36.160Z,5.20
2019-02-04T18:33:05.593Z,5.20
2019-02-04T18:35:35.581Z,5.20
2019-02-04T18:38:05.110Z,5.20
2019-02-04T18:40:34.739Z,5.20
2019-02-04T18:43:04.285Z,5.10
2019-02-04T18:45:33.826Z,5.20
2019-02-04T18:48:03.227Z,5.20
2019-02-04T18:50:33.156Z,5.10
2019-02-04T18:53:02.588Z,5.10
2019-02-04T18:55:33.252Z,5.10
2019-02-04T18:58:02.643Z,5.10
2019-02-04T19:00:32.701Z,5.00
2019-02-04T19:03:03.031Z,5.00
2019-02-04T19:05:32.794Z,5.00
2019-02-04T19:08:02.250Z,5.00
2019-02-04T19:10:31.784Z,5.00
2019-02-04T19:13:01.214Z,5.00
2019-02-04T19:15:30.807Z,5.00
2019-02-04T19:18:03.646Z,5.10
2019-02-04T19:20:33.137Z,5.10
2019-02-04T19:23:02.552Z,5.10
2019-02-04T19:25:31.987Z,5.10
2019-02-04T19:28:01.361Z,5.10
2019-02-04T19:30:36.559Z,5.20
2019-02-04T19:33:06.118Z,5.10
2019-02-04T19:35:35.636Z,5.10
2019-02-04T19:38:05.292Z,5.10
2019-02-04T19:40:34.888Z,5.20
2019-02-04T19:43:04.515Z,5.10
2019-02-04T19:45:34.232Z,5.20
2019-02-04T19:48:03.807Z,5.20
2019-02-04T19:50:33.384Z,5.20
2019-02-04T19:53:02.801Z,5.20
2019-02-04T19:55:32.223Z,5.20
2019-02-04T19:58:01.979Z,5.30
2019-02-04T20:00:31.697Z,5.30
2019-02-04T20:03:03.069Z,5.20
2019-02-04T20:05:32.920Z,5.20
2019-02-04T20:08:03.041Z,5.20
2019-02-04T20:10:33.794Z,5.20
2019-02-04T20:13:03.742Z,5.20
2019-02-04T20:15:33.468Z,5.20
2019-02-04T20:18:04.318Z,5.30
2019-02-04T20:20:33.818Z,5.30
2019-02-04T20:23:03.418Z,5.30
2019-02-04T20:25:32.948Z,5.20
2019-02-04T20:28:02.464Z,5.20
2019-02-04T20:30:45.475Z,5.20
2019-02-04T20:33:10.480Z,5.30
2019-02-04T20:35:39.617Z,5.20
2019-02-04T20:38:09.468Z,5.20
2019-02-04T20:40:39.503Z,5.20
2019-02-04T20:43:09.222Z,5.20
2019-02-04T20:45:38.898Z,5.10
2019-02-04T20:48:10.877Z,5.20
2019-02-04T20:50:41.317Z,5.20
2019-02-04T20:53:10.970Z,5.20
2019-02-04T20:55:40.870Z,5.20
2019-02-04T20:58:10.303Z,5.20
2019-02-04T21:00:39.816Z,5.20
2019-02-04T21:03:09.288Z,5.20
2019-02-04T21:05:38.700Z,5.30
2019-02-04T21:08:08.322Z,5.20
2019-02-04T21:10:38.095Z,5.20
2019-02-04T21:13:07.549Z,5.20
2019-02-04T21:15:37.090Z,5.20
2019-02-04T21:18:06.821Z,5.20
2019-02-04T21:20:36.239Z,5.30
2019-02-04T21:23:05.765Z,5.20
2019-02-04T21:25:35.435Z,5.20
2019-02-04T21:28:05.371Z,5.20
2019-02-04T21:30:37.272Z,5.20
2019-02-04T21:33:06.996Z,5.20
2019-02-04T21:35:36.500Z,5.20
2019-02-04T21:38:06.576Z,5.20
2019-02-04T21:40:35.983Z,5.20
2019-02-04T21:43:05.793Z,5.20
2019-02-04T21:45:35.306Z,5.20
2019-02-04T21:48:05.273Z,5.20
2019-02-04T21:50:35.041Z,5.20
2019-02-04T21:53:04.569Z,5.20
2019-02-04T21:55:33.956Z,5.20
2019-02-04T21:58:03.354Z,5.20
2019-02-04T22:00:37.771Z,5.20
2019-02-04T22:03:07.324Z,5.20
2019-02-04T22:05:36.819Z,5.20
2019-02-04T22:08:07.455Z,5.20
2019-02-04T22:10:36.800Z,5.10
2019-02-04T22:13:06.231Z,5.20
2019-02-04T22:15:35.967Z,5.20
2019-02-04T22:18:07.121Z,5.20
2019-02-04T22:20:36.867Z,5.20
2019-02-04T22:23:06.286Z,5.10
2019-02-04T22:25:35.752Z,5.20
2019-02-04T22:28:05.809Z,5.20
2019-02-04T22:30:35.237Z,5.10
2019-02-04T22:33:04.764Z,5.20
2019-02-04T22:35:34.132Z,5.20
2019-02-04T22:38:03.763Z,5.20
2019-02-04T22:40:33.168Z,5.20
2019-02-04T22:43:02.634Z,5.20
2019-02-04T22:45:32.075Z,5.20
2019-02-04T22:48:01.516Z,5.10
2019-02-04T22:50:31.773Z,5.10
2019-02-04T22:53:02.244Z,5.10
2019-02-04T22:55:32.591Z,5.10
2019-02-04T22:58:02.297Z,5.20
2019-02-04T23:00:56.792Z,5.20
2019-02-04T23:03:26.533Z,5.20
2019-02-04T23:05:55.967Z,5.20
2019-02-04T23:08:25.371Z,5.10
2019-02-04T23:10:54.839Z,5.10
2019-02-04T23:13:24.215Z,5.10
2019-02-04T23:15:54.250Z,5.10
2019-02-04T23:18:23.664Z,5.10
2019-02-04T23:20:53.302Z,5.10
2019-02-04T23:23:22.637Z,5.10
2019-02-04T23:25:52.319Z,5.00
2019-02-04T23:28:21.653Z,5.00
2019-02-04T23:30:51.246Z,5.00
2019-02-04T23:33:20.673Z,5.00
2019-02-04T23:35:50.071Z,4.90
2019-02-04T23:38:19.426Z,4.90
2019-02-04T23:40:48.811Z,4.80
2019-02-04T23:43:18.166Z,4.70
2019-02-04T23:45:47.520Z,4.70
2019-02-04T23:48:16.836Z,4.70
2019-02-04T23:50:46.311Z,4.70
2019-02-04T23:53:15.716Z,4.60
2019-02-04T23:55:54.284Z,4.50
2019-02-04T23:58:16.153Z,4.50
